Sample Charts Sidebar
> Live data! Your data is on the web site for you to access within minutes
 
> Detailed data is easily downloaded as data file, which can be opened with Excel
 
> Charts can be customised if necessary
  Chart 1
 

(A maximum of 50 rows are displayed here. Use "Export Data" to see all rows in the date range.)
Date Collected Temperature
(Celcius)
Wind-chill
(Celcius)
Wind Speed
(km/hr)
Gust
(km/hr)
Wind Direction
(degrees)
2020-10-01 07:00 11.2 10.3 3 8 234
2020-10-01 06:00 12.8 12.2 3 10 345
2020-10-01 05:00 13.2 11.6 4 13 342
2020-10-01 04:00 13.0 12.3 3 10 356
2020-10-01 03:00 13.4 11.8 5 16 353
2020-10-01 02:00 14.4 11.4 6 20 348
2020-10-01 01:00 14.2 11.6 6 16 12
2020-10-01 00:00 14.2 12.1 5 15 350
2020-09-30 23:00 13.5 11.7 5 13 347
2020-09-30 22:00 13.6 12.9 3 8 1
2020-09-30 21:00 13.3 11.6 5 10 50
2020-09-30 20:00 14.1 12.8 4 13 20
2020-09-30 19:00 14.7 13.1 5 16 348
2020-09-30 18:00 15.3 13.8 4 14 359
2020-09-30 17:00 15.2 12.9 6 18 343
2020-09-30 16:00 15.5 13.5 5 16 336
2020-09-30 15:00 16.3 12.9 7 25 345
2020-09-30 14:00 16.8 13.9 7 20 21
2020-09-30 13:00 16.3 12.9 7 19 3
2020-09-30 12:00 15.8 13.2 6 16 19
2020-09-30 11:00 15.2 12.1 7 15 16
2020-09-30 10:00 12.1 9.1 5 16 31
2020-09-30 09:00 8.4 6.5 4 8 61
2020-09-30 08:00 6.5 4.1 5 9 57
2020-09-30 07:00 5.5 3.3 4 8 44
2020-09-30 06:00 4.4 1.4 5 10 56
2020-09-30 05:00 4.0 1.2 5 11 48
2020-09-30 04:00 4.0 1.4 5 10 56
2020-09-30 03:00 3.5 1.1 5 11 56
2020-09-30 02:00 4.0 1.8 4 9 50
2020-09-30 01:00 4.2 1.8 5 10 51
2020-09-30 00:00 4.6 3.1 4 8 49
2020-09-29 23:00 5.0 4.3 3 6 52
2020-09-29 22:00 5.2 5.1 2 6 43
2020-09-29 21:00 5.7 5.8 2 5 36
2020-09-29 20:00 6.7 6.7 1 3 18
2020-09-29 19:00 8.1 8.4 0 1 293
2020-09-29 18:00 10.6 10.7 1 3 207
2020-09-29 17:00 12.5 12.2 3 7 210
2020-09-29 16:00 14.2 14.2 0 0 217
2020-09-29 15:00 14.7 13.9 4 10 201
2020-09-29 14:00 15.3 13.9 4 11 201
2020-09-29 13:00 15.1 14.0 4 10 195
2020-09-29 12:00 14.7 14.0 3 11 196
2020-09-29 11:00 14.9 13.4 4 10 227
2020-09-29 10:00 12.4 12.2 2 5 210
2020-09-29 09:00 8.6 8.3 1 3 40
2020-09-29 08:00 6.4 6.2 2 5 39
2020-09-29 07:00 5.2 5.1 2 5 42
2020-09-29 06:00 4.7 4.8 1 4 43